createdAt,value
2023-06-21T00:03:14.992Z,101103.06
2023-06-21T00:08:18.087Z,101098.13
2023-06-21T00:13:22.295Z,101109.41
2023-06-21T00:18:25.586Z,101093.47
2023-06-21T00:23:28.521Z,101089.78
2023-06-21T00:28:32.734Z,101088.34
2023-06-21T00:33:35.582Z,101094.41
2023-06-21T00:38:38.441Z,101102.88
2023-06-21T00:43:42.675Z,101106.63
2023-06-21T00:48:45.554Z,101108.66
2023-06-21T00:53:48.400Z,101110.50
2023-06-21T00:58:52.612Z,101117.13
2023-06-21T01:03:57.209Z,101117.97
2023-06-21T01:09:07.604Z,101121.56
2023-06-21T01:14:22.883Z,101124.72
2023-06-21T01:19:31.291Z,101139.72
2023-06-21T01:24:57.379Z,101126.38
2023-06-21T01:30:03.299Z,101144.47
2023-06-21T01:35:10.127Z,101151.28
2023-06-21T01:40:14.836Z,101148.66
2023-06-21T01:45:23.101Z,101147.56
2023-06-21T01:50:27.300Z,101156.44
2023-06-21T01:55:31.170Z,101163.59
2023-06-21T02:00:35.494Z,101150.22
2023-06-21T02:05:38.709Z,101140.78
2023-06-21T02:10:43.469Z,101144.66
2023-06-21T02:15:48.243Z,101151.72
2023-06-21T02:20:51.430Z,101149.41
2023-06-21T02:25:55.875Z,101146.91
2023-06-21T02:31:00.023Z,101154.66
2023-06-21T02:36:03.252Z,101167.88
2023-06-21T02:41:06.678Z,101168.00
2023-06-21T02:46:10.878Z,101168.75
2023-06-21T02:51:13.735Z,101171.16
2023-06-21T02:56:16.593Z,101184.38
2023-06-21T03:01:20.926Z,101182.25
2023-06-21T03:06:24.757Z,101192.22
2023-06-21T03:11:27.676Z,101202.72
2023-06-21T03:16:33.689Z,101211.50
2023-06-21T03:21:36.662Z,101214.84
2023-06-21T03:26:39.493Z,101231.81
2023-06-21T03:31:43.828Z,101226.13
2023-06-21T03:36:47.136Z,101215.41
2023-06-21T03:41:51.636Z,101228.41
2023-06-21T03:46:55.927Z,101252.66
2023-06-21T03:51:59.054Z,101258.59
2023-06-21T03:57:01.950Z,101263.91
2023-06-21T04:02:08.137Z,101262.47
2023-06-21T04:07:11.094Z,101260.78
2023-06-21T04:12:14.128Z,101260.84
2023-06-21T04:17:18.441Z,101258.81
2023-06-21T04:22:22.514Z,101258.91
2023-06-21T04:27:25.490Z,101260.56
2023-06-21T04:32:33.148Z,101268.25
2023-06-21T04:37:38.259Z,101280.22
2023-06-21T04:42:42.044Z,101282.56
2023-06-21T04:47:47.525Z,101291.66
2023-06-21T04:52:51.436Z,101283.66
2023-06-21T04:57:54.625Z,101275.72
2023-06-21T05:02:59.162Z,101278.66
2023-06-21T05:08:02.192Z,101284.41
2023-06-21T05:13:05.720Z,101283.69
2023-06-21T05:18:09.943Z,101287.09
2023-06-21T05:23:12.909Z,101293.97
2023-06-21T05:28:15.828Z,101300.41
2023-06-21T05:33:20.224Z,101307.06
2023-06-21T05:38:23.454Z,101303.09
2023-06-21T05:43:26.364Z,101298.75
2023-06-21T05:48:31.517Z,101302.00
2023-06-21T05:53:34.465Z,101306.38
2023-06-21T05:58:37.318Z,101299.09
2023-06-21T06:03:41.634Z,101317.25
2023-06-21T06:08:44.567Z,101325.19
2023-06-21T06:13:47.476Z,101336.00
2023-06-21T06:18:51.714Z,101346.13
2023-06-21T06:23:55.157Z,101356.00
2023-06-21T06:28:58.335Z,101370.31
2023-06-21T06:34:02.848Z,101376.25
2023-06-21T06:39:07.381Z,101393.38
2023-06-21T06:44:10.350Z,101420.00
2023-06-21T06:49:14.748Z,101434.00
2023-06-21T06:54:17.634Z,101446.88
2023-06-21T06:59:20.567Z,101453.16
2023-06-21T07:04:26.948Z,101452.75
2023-06-21T07:09:30.422Z,101465.78
2023-06-21T07:14:33.369Z,101452.41
2023-06-21T07:19:38.410Z,101458.47
2023-06-21T07:24:41.496Z,101460.38
2023-06-21T07:29:44.523Z,101474.53
2023-06-21T07:34:49.683Z,101470.59
2023-06-21T07:39:54.913Z,101484.09
2023-06-21T07:44:58.321Z,101496.53
2023-06-21T07:50:16.626Z,101493.09
2023-06-21T07:55:23.802Z,101476.22
2023-06-21T08:00:26.845Z,101472.47
2023-06-21T08:05:31.530Z,101493.72
2023-06-21T08:10:35.123Z,101497.34
2023-06-21T08:15:38.165Z,101498.84
2023-06-21T08:20:43.003Z,101494.22
2023-06-21T08:25:46.967Z,101505.06
2023-06-21T08:30:49.916Z,101508.88
2023-06-21T08:35:54.205Z,101507.41
2023-06-21T08:41:00.312Z,101515.81
2023-06-21T08:46:08.624Z,101514.69
2023-06-21T08:51:13.837Z,101530.31
2023-06-21T08:56:20.250Z,101534.34
2023-06-21T09:01:24.935Z,101546.88
2023-06-21T09:06:29.642Z,101540.00
2023-06-21T09:11:33.402Z,101551.94
2023-06-21T09:16:36.721Z,101546.59
2023-06-21T09:21:43.603Z,101556.13
2023-06-21T09:26:46.557Z,101552.03
2023-06-21T09:31:49.538Z,101555.78
2023-06-21T09:36:55.880Z,101584.75
2023-06-21T09:41:58.819Z,101565.97
2023-06-21T09:47:04.396Z,101584.31
2023-06-21T09:52:09.333Z,101573.94
2023-06-21T09:57:14.734Z,101593.75
2023-06-21T10:02:17.679Z,101604.09
2023-06-21T10:07:23.347Z,101594.53
2023-06-21T10:12:26.371Z,101619.63
2023-06-21T10:17:29.472Z,101636.53
2023-06-21T10:22:34.577Z,101648.25
2023-06-21T10:27:37.827Z,101653.91
2023-06-21T10:32:44.191Z,101651.94
2023-06-21T10:37:53.028Z,101651.78
2023-06-21T10:42:57.222Z,101668.50
2023-06-21T10:48:00.510Z,101670.41
2023-06-21T10:53:06.458Z,101655.78
2023-06-21T10:58:09.531Z,101663.06
2023-06-21T11:03:14.346Z,101678.34
2023-06-21T11:08:18.782Z,101696.50
2023-06-21T11:13:35.853Z,101684.13
2023-06-21T11:18:38.869Z,101687.44
2023-06-21T11:23:53.523Z,101687.31
2023-06-21T11:28:57.131Z,101691.22
2023-06-21T11:34:06.789Z,101685.56
2023-06-21T11:39:27.377Z,101710.03
2023-06-21T11:44:34.346Z,101709.09
2023-06-21T11:49:54.406Z,101707.88
2023-06-21T11:55:00.324Z,101719.94
2023-06-21T12:00:04.991Z,101731.84
2023-06-21T12:05:12.055Z,101741.50
2023-06-21T12:10:16.599Z,101728.41
2023-06-21T12:15:19.840Z,101733.34
2023-06-21T12:20:22.857Z,101750.19
2023-06-21T12:25:27.163Z,101754.25
2023-06-21T12:30:30.537Z,101753.72
2023-06-21T12:35:38.576Z,101760.88
2023-06-21T12:40:58.695Z,101760.59
2023-06-21T12:46:01.808Z,101769.72
2023-06-21T12:51:05.206Z,101783.59
2023-06-21T12:56:10.876Z,101788.31
2023-06-21T13:01:13.832Z,101783.88
2023-06-21T13:06:17.505Z,101782.75
2023-06-21T13:11:23.040Z,101778.41
2023-06-21T13:16:26.146Z,101771.31
2023-06-21T13:21:29.912Z,101767.22
2023-06-21T13:26:34.223Z,101779.69
2023-06-21T13:31:38.082Z,101781.19
2023-06-21T13:36:40.954Z,101788.34
2023-06-21T13:41:45.247Z,101774.56
2023-06-21T13:46:48.548Z,101789.19
2023-06-21T13:51:52.022Z,101788.63
2023-06-21T13:56:56.473Z,101787.09
2023-06-21T14:01:59.391Z,101778.69
2023-06-21T14:07:03.368Z,101794.53
2023-06-21T14:12:13.162Z,101786.38
2023-06-21T14:17:16.724Z,101783.44
2023-06-21T14:22:20.153Z,101793.91
2023-06-21T14:27:27.566Z,101789.28
2023-06-21T14:32:31.177Z,101789.50
2023-06-21T14:37:34.703Z,101784.81
2023-06-21T14:42:39.031Z,101786.75
2023-06-21T14:47:42.108Z,101777.03
2023-06-21T14:52:45.766Z,101788.44
2023-06-21T14:57:53.920Z,101780.88
2023-06-21T15:02:57.201Z,101788.44
2023-06-21T15:08:00.098Z,101801.63
2023-06-21T15:13:04.635Z,101802.22
2023-06-21T15:18:08.597Z,101800.28
2023-06-21T15:23:12.338Z,101804.41
2023-06-21T15:28:16.846Z,101816.22
2023-06-21T15:33:19.902Z,101810.88
2023-06-21T15:38:26.274Z,101810.50
2023-06-21T15:43:31.314Z,101799.56
2023-06-21T15:48:36.681Z,101797.88
2023-06-21T15:53:39.907Z,101799.78
2023-06-21T15:58:44.483Z,101797.22
2023-06-21T16:03:48.497Z,101805.66
2023-06-21T16:08:56.703Z,101800.16
2023-06-21T16:14:01.721Z,101810.97
2023-06-21T16:19:04.624Z,101812.44
2023-06-21T16:24:10.164Z,101810.78
2023-06-21T16:29:15.586Z,101816.69
2023-06-21T16:34:23.835Z,101811.06
2023-06-21T16:39:29.912Z,101826.00
2023-06-21T16:44:34.762Z,101820.31
2023-06-21T16:49:38.943Z,101824.38
2023-06-21T16:54:42.068Z,101838.88
2023-06-21T16:59:48.777Z,101837.09
2023-06-21T17:04:51.699Z,101836.59
2023-06-21T17:09:54.941Z,101840.53
2023-06-21T17:15:01.414Z,101839.88
2023-06-21T17:20:07.016Z,101844.78
2023-06-21T17:25:14.713Z,101842.16
2023-06-21T17:30:19.316Z,101847.00
2023-06-21T17:35:22.556Z,101847.97
2023-06-21T17:40:25.475Z,101852.66
2023-06-21T17:45:31.455Z,101858.09
2023-06-21T17:50:34.474Z,101864.41
2023-06-21T17:55:37.406Z,101865.69
2023-06-21T18:00:41.696Z,101853.09
2023-06-21T18:05:45.007Z,101845.97
2023-06-21T18:10:48.088Z,101852.56
2023-06-21T18:15:54.608Z,101851.81
2023-06-21T18:20:57.654Z,101847.06
2023-06-21T18:26:00.650Z,101841.44
2023-06-21T18:31:05.036Z,101843.50
2023-06-21T18:36:08.238Z,101834.81
2023-06-21T18:41:11.313Z,101837.69
2023-06-21T18:46:15.591Z,101835.91
2023-06-21T18:51:18.610Z,101835.13
2023-06-21T18:56:21.676Z,101830.59
2023-06-21T19:01:26.484Z,101839.63
2023-06-21T19:06:29.542Z,101843.72
2023-06-21T19:11:33.153Z,101848.19
2023-06-21T19:16:37.629Z,101846.66
2023-06-21T19:21:41.696Z,101856.06
2023-06-21T19:26:55.905Z,101854.59
2023-06-21T19:32:01.059Z,101850.16
2023-06-21T19:37:05.828Z,101848.13
2023-06-21T19:42:09.276Z,101859.38
2023-06-21T19:47:15.296Z,101858.44
2023-06-21T19:52:18.415Z,101867.06
2023-06-21T19:57:21.392Z,101878.31
2023-06-21T20:02:26.441Z,101877.59
2023-06-21T20:07:30.365Z,101874.72
2023-06-21T20:12:33.472Z,101874.25
2023-06-21T20:17:38.236Z,101885.22
2023-06-21T20:22:41.169Z,101892.63
2023-06-21T20:27:44.875Z,101902.03
2023-06-21T20:32:49.864Z,101911.31
2023-06-21T20:37:52.942Z,101914.47
2023-06-21T20:42:57.543Z,101912.88
2023-06-21T20:48:02.994Z,101910.53
2023-06-21T20:53:05.935Z,101914.13
2023-06-21T20:58:08.777Z,101912.16
2023-06-21T21:03:13.093Z,101933.59
2023-06-21T21:08:16.261Z,101929.66
2023-06-21T21:13:19.124Z,101929.66
2023-06-21T21:18:23.352Z,101944.25
2023-06-21T21:23:51.572Z,101940.16
2023-06-21T21:28:55.151Z,101950.50
2023-06-21T21:34:00.004Z,101948.13
2023-06-21T21:39:02.899Z,101954.50
2023-06-21T21:44:06.432Z,101952.91
2023-06-21T21:49:10.659Z,101937.69
2023-06-21T21:54:13.487Z,101941.78
2023-06-21T21:59:16.523Z,101944.81
2023-06-21T22:04:20.870Z,101957.09
2023-06-21T22:09:24.283Z,101957.09
2023-06-21T22:14:33.326Z,101953.97
2023-06-21T22:19:37.767Z,101952.72
2023-06-21T22:24:41.479Z,101947.41
2023-06-21T22:29:46.698Z,101939.97
2023-06-21T22:34:53.797Z,101931.53
2023-06-21T22:39:56.807Z,101920.59
2023-06-21T22:44:59.687Z,101934.56
2023-06-21T22:50:04.256Z,101941.66
2023-06-21T22:55:07.901Z,101947.09
2023-06-21T23:00:11.904Z,101945.22
2023-06-21T23:05:16.755Z,101942.09
2023-06-21T23:10:19.864Z,101951.06
2023-06-21T23:15:24.399Z,101961.00
2023-06-21T23:20:33.961Z,101955.81
2023-06-21T23:25:36.899Z,101954.16
2023-06-21T23:30:44.455Z,101963.91
2023-06-21T23:35:48.920Z,101954.41
2023-06-21T23:40:51.719Z,101958.03
2023-06-21T23:45:54.565Z,101950.88
2023-06-21T23:50:59.772Z,101948.63
2023-06-21T23:56:04.402Z,101943.56
